createdAt,value
2018-09-24T00:00:50.417Z,989.328
2018-09-24T00:02:49.907Z,989.384
2018-09-24T00:04:50.311Z,989.462
2018-09-24T00:06:50.516Z,989.545
2018-09-24T00:08:50.551Z,989.628
2018-09-24T00:10:49.661Z,989.736
2018-09-24T00:12:49.827Z,989.816
2018-09-24T00:14:50.080Z,989.860
2018-09-24T00:16:50.285Z,989.978
2018-09-24T00:18:50.190Z,990.015
2018-09-24T00:20:50.205Z,990.109
2018-09-24T00:22:50.205Z,990.123
2018-09-24T00:24:50.327Z,990.193
2018-09-24T00:26:49.645Z,990.239
2018-09-24T00:28:49.815Z,990.283
2018-09-24T00:30:49.821Z,990.331
2018-09-24T00:32:49.938Z,990.354
2018-09-24T00:34:50.288Z,990.451
2018-09-24T00:36:49.634Z,990.468
2018-09-24T00:38:50.603Z,990.552
2018-09-24T00:40:49.712Z,990.589
2018-09-24T00:42:49.908Z,990.617
2018-09-24T00:44:49.839Z,990.706
2018-09-24T00:46:50.011Z,990.735
2018-09-24T00:48:50.022Z,990.747
2018-09-24T00:50:50.053Z,990.803
2018-09-24T00:52:50.180Z,990.803
2018-09-24T00:54:50.222Z,990.853
2018-09-24T00:56:50.301Z,990.888
2018-09-24T00:58:50.499Z,990.931
2018-09-24T01:00:50.557Z,990.928
2018-09-24T01:02:50.524Z,990.942
2018-09-24T01:04:50.099Z,990.997
2018-09-24T01:06:50.342Z,991.040
2018-09-24T01:08:50.469Z,991.104
2018-09-24T01:10:50.467Z,991.142
2018-09-24T01:12:50.470Z,991.213
2018-09-24T01:14:50.417Z,991.258
2018-09-24T01:16:49.639Z,991.278
2018-09-24T01:18:49.616Z,991.312
2018-09-24T01:20:50.603Z,991.390
2018-09-24T01:22:49.703Z,991.434
2018-09-24T01:24:49.889Z,991.466
2018-09-24T01:26:50.036Z,991.520
2018-09-24T01:28:50.020Z,991.526
2018-09-24T01:30:50.077Z,991.572
2018-09-24T01:32:50.163Z,991.629
2018-09-24T01:34:50.478Z,991.672
2018-09-24T01:36:49.690Z,991.704
2018-09-24T01:38:49.679Z,991.732
2018-09-24T01:40:49.710Z,991.761
2018-09-24T01:42:49.805Z,991.786
2018-09-24T01:44:49.887Z,991.786
2018-09-24T01:46:50.027Z,991.797
2018-09-24T01:48:50.042Z,991.802
2018-09-24T01:50:49.972Z,991.831
2018-09-24T01:52:49.941Z,991.844
2018-09-24T01:54:49.948Z,991.853
2018-09-24T01:56:50.355Z,991.891
2018-09-24T01:58:49.724Z,991.925
2018-09-24T02:00:49.804Z,991.965
2018-09-24T02:02:49.923Z,992.004
2018-09-24T02:04:50.143Z,991.990
2018-09-24T02:06:50.456Z,991.958
2018-09-24T02:08:50.447Z,991.940
2018-09-24T02:10:50.530Z,991.965
2018-09-24T02:12:50.508Z,992.002
2018-09-24T02:14:50.614Z,992.008
2018-09-24T02:16:49.802Z,992.064
2018-09-24T02:18:49.887Z,992.071
2018-09-24T02:20:49.892Z,992.067
2018-09-24T02:22:49.867Z,992.087
2018-09-24T02:24:49.867Z,992.090
2018-09-24T02:26:50.089Z,992.130
2018-09-24T02:28:50.198Z,992.173
2018-09-24T02:30:50.282Z,992.231
2018-09-24T02:32:50.187Z,992.259
2018-09-24T02:34:50.492Z,992.278
2018-09-24T02:36:49.865Z,992.250
2018-09-24T02:38:49.830Z,992.251
2018-09-24T02:40:49.843Z,992.287
2018-09-24T02:42:49.908Z,992.297
2018-09-24T02:44:49.993Z,992.324
2018-09-24T02:46:50.400Z,992.372
2018-09-24T02:48:50.322Z,992.436
2018-09-24T02:50:50.457Z,992.443
2018-09-24T02:52:50.599Z,992.477
2018-09-24T02:54:49.622Z,992.516
2018-09-24T02:56:49.799Z,992.527
2018-09-24T02:58:49.832Z,992.557
2018-09-24T03:00:49.791Z,992.557
2018-09-24T03:02:49.810Z,992.620
2018-09-24T03:04:50.041Z,992.625
2018-09-24T03:06:50.253Z,992.673
2018-09-24T03:08:50.218Z,992.673
2018-09-24T03:10:50.304Z,992.771
2018-09-24T03:12:50.289Z,992.773
2018-09-24T03:14:50.269Z,992.771
2018-09-24T03:16:50.480Z,992.806
2018-09-24T03:18:50.403Z,992.827
2018-09-24T03:20:50.553Z,992.826
2018-09-24T03:22:50.643Z,992.842
2018-09-24T03:24:49.610Z,992.893
2018-09-24T03:26:49.853Z,992.923
2018-09-24T03:28:49.880Z,992.959
2018-09-24T03:30:49.893Z,992.956
2018-09-24T03:32:50.009Z,992.921
2018-09-24T03:34:50.288Z,992.921
2018-09-24T03:36:50.445Z,992.931
2018-09-24T03:38:50.390Z,992.988
2018-09-24T03:40:50.370Z,993.051
2018-09-24T03:42:50.373Z,993.071
2018-09-24T03:44:50.376Z,993.087
2018-09-24T03:46:50.538Z,993.104
2018-09-24T03:48:50.421Z,993.097
2018-09-24T03:50:50.420Z,993.120
2018-09-24T03:52:50.478Z,993.123
2018-09-24T03:54:50.479Z,993.135
2018-09-24T03:56:49.702Z,993.165
2018-09-24T03:58:50.003Z,993.168
2018-09-24T04:00:50.287Z,993.170
2018-09-24T04:02:50.325Z,993.179
2018-09-24T04:04:49.697Z,993.215
2018-09-24T04:06:49.789Z,993.214
2018-09-24T04:08:49.772Z,993.230
2018-09-24T04:10:49.919Z,993.236
2018-09-24T04:12:50.095Z,993.251
2018-09-24T04:14:50.109Z,993.306
2018-09-24T04:16:50.265Z,993.329
2018-09-24T04:18:50.266Z,993.377
2018-09-24T04:20:50.370Z,993.413
2018-09-24T04:22:50.365Z,993.435
2018-09-24T04:24:50.430Z,993.469
2018-09-24T04:26:50.136Z,993.538
2018-09-24T04:28:50.350Z,993.555
2018-09-24T04:30:50.409Z,993.607
2018-09-24T04:32:50.366Z,993.635
2018-09-24T04:34:49.814Z,993.661
2018-09-24T04:36:49.959Z,993.696
2018-09-24T04:38:49.893Z,993.731
2018-09-24T04:40:49.840Z,993.780
2018-09-24T04:42:49.942Z,993.810
2018-09-24T04:44:49.926Z,993.831
2018-09-24T04:46:49.979Z,993.839
2018-09-24T04:48:50.136Z,993.854
2018-09-24T04:50:50.169Z,993.878
2018-09-24T04:52:50.214Z,993.895
2018-09-24T04:54:50.237Z,993.919
2018-09-24T04:56:50.478Z,993.930
2018-09-24T04:58:50.460Z,993.939
2018-09-24T05:00:50.441Z,993.957
2018-09-24T05:02:50.510Z,994.014
2018-09-24T05:04:49.816Z,994.080
2018-09-24T05:06:49.964Z,994.097
2018-09-24T05:08:50.100Z,994.125
2018-09-24T05:10:50.123Z,994.173
2018-09-24T05:12:50.115Z,994.204
2018-09-24T05:14:50.131Z,994.225
2018-09-24T05:16:50.255Z,994.264
2018-09-24T05:18:50.237Z,994.296
2018-09-24T05:20:50.264Z,994.305
2018-09-24T05:22:50.193Z,994.295
2018-09-24T05:24:50.127Z,994.334
2018-09-24T05:26:50.248Z,994.365
2018-09-24T05:28:50.205Z,994.448
2018-09-24T05:30:50.192Z,994.448
2018-09-24T05:32:50.189Z,994.509
2018-09-24T05:34:50.601Z,994.556
2018-09-24T05:36:50.408Z,994.544
2018-09-24T05:38:50.391Z,994.556
2018-09-24T05:40:50.352Z,994.559
2018-09-24T05:42:50.327Z,994.595
2018-09-24T05:44:50.371Z,994.633
2018-09-24T05:46:50.481Z,994.734
2018-09-24T05:48:49.623Z,994.771
2018-09-24T05:50:49.643Z,994.847
2018-09-24T05:52:49.668Z,994.873
2018-09-24T05:54:49.794Z,994.964
2018-09-24T05:56:49.964Z,994.985
2018-09-24T05:58:49.988Z,995.010
2018-09-24T06:00:49.991Z,995.055
2018-09-24T06:02:50.174Z,995.059
2018-09-24T06:04:50.439Z,995.114
2018-09-24T06:06:49.819Z,995.146
2018-09-24T06:08:49.895Z,995.189
2018-09-24T06:10:49.868Z,995.213
2018-09-24T06:12:49.894Z,995.225
2018-09-24T06:14:49.887Z,995.210
2018-09-24T06:16:50.049Z,995.263
2018-09-24T06:18:50.099Z,995.311
2018-09-24T06:20:50.239Z,995.365
2018-09-24T06:22:50.258Z,995.377
2018-09-24T06:24:50.273Z,995.407
2018-09-24T06:26:50.423Z,995.468
2018-09-24T06:28:50.545Z,995.516
2018-09-24T06:30:49.726Z,995.520
2018-09-24T06:32:49.724Z,995.581
2018-09-24T06:34:50.100Z,995.625
2018-09-24T06:36:50.273Z,995.626
2018-09-24T06:38:50.347Z,995.666
2018-09-24T06:40:50.391Z,995.652
2018-09-24T06:42:50.355Z,995.683
2018-09-24T06:44:50.319Z,995.762
2018-09-24T06:46:49.834Z,995.778
2018-09-24T06:48:49.859Z,995.822
2018-09-24T06:50:49.850Z,995.822
2018-09-24T06:52:49.861Z,995.873
2018-09-24T06:54:49.915Z,995.891
2018-09-24T06:56:50.057Z,995.946
2018-09-24T06:58:50.027Z,995.964
2018-09-24T07:00:50.029Z,996.024
2018-09-24T07:02:49.992Z,996.033
2018-09-24T07:04:50.226Z,996.055
2018-09-24T07:06:50.499Z,996.099
2018-09-24T07:08:50.472Z,996.150
2018-09-24T07:10:50.364Z,996.222
2018-09-24T07:12:50.415Z,996.261
2018-09-24T07:14:50.376Z,996.305
2018-09-24T07:16:49.649Z,996.399
2018-09-24T07:18:49.937Z,996.384
2018-09-24T07:20:49.967Z,996.428
2018-09-24T07:22:49.931Z,996.429
2018-09-24T07:24:49.901Z,996.468
2018-09-24T07:26:49.964Z,996.469
2018-09-24T07:28:49.969Z,996.459
2018-09-24T07:30:50.025Z,996.506
2018-09-24T07:32:50.035Z,996.529
2018-09-24T07:34:50.254Z,996.564
2018-09-24T07:36:50.386Z,996.602
2018-09-24T07:38:50.487Z,996.636
2018-09-24T07:40:50.452Z,996.753
2018-09-24T07:42:50.337Z,996.802
2018-09-24T07:44:50.316Z,996.840
2018-09-24T07:46:50.447Z,996.854
2018-09-24T07:48:50.417Z,996.843
2018-09-24T07:50:50.444Z,996.856
2018-09-24T07:52:50.362Z,996.868
2018-09-24T07:54:50.333Z,996.863
2018-09-24T07:56:50.465Z,996.960
2018-09-24T07:58:50.429Z,997.025
2018-09-24T08:00:50.539Z,997.061
2018-09-24T08:02:49.748Z,997.101
2018-09-24T08:04:50.056Z,997.126
2018-09-24T08:06:50.286Z,997.145
2018-09-24T08:08:50.211Z,997.210
2018-09-24T08:10:50.224Z,997.304
2018-09-24T08:12:50.446Z,997.319
2018-09-24T08:14:49.641Z,997.322
2018-09-24T08:16:49.810Z,997.346
2018-09-24T08:18:49.839Z,997.358
2018-09-24T08:20:49.846Z,997.393
2018-09-24T08:22:49.895Z,997.424
2018-09-24T08:24:49.892Z,997.429
2018-09-24T08:26:50.090Z,997.453
2018-09-24T08:28:50.159Z,997.457
2018-09-24T08:30:50.327Z,997.443
2018-09-24T08:32:50.274Z,997.426
2018-09-24T08:34:50.582Z,997.430
2018-09-24T08:36:49.886Z,997.460
2018-09-24T08:38:49.887Z,997.460
2018-09-24T08:40:49.978Z,997.459
2018-09-24T08:42:49.990Z,997.481
2018-09-24T08:44:50.022Z,997.516
2018-09-24T08:46:50.274Z,997.516
2018-09-24T08:48:50.224Z,997.557
2018-09-24T08:50:50.371Z,997.577
2018-09-24T08:52:50.402Z,997.650
2018-09-24T08:54:50.518Z,997.675
2018-09-24T08:56:50.034Z,997.693
2018-09-24T08:58:50.265Z,997.727
2018-09-24T09:00:50.276Z,997.764
2018-09-24T09:02:50.488Z,997.755
2018-09-24T09:04:50.121Z,997.741
2018-09-24T09:06:50.314Z,997.777
2018-09-24T09:08:50.228Z,997.792
2018-09-24T09:10:50.228Z,997.794
2018-09-24T09:12:50.185Z,997.793
2018-09-24T09:14:50.218Z,997.788
2018-09-24T09:16:50.395Z,997.825
2018-09-24T09:18:50.309Z,997.836
2018-09-24T09:20:50.397Z,997.847
2018-09-24T09:22:50.344Z,997.927
2018-09-24T09:24:50.323Z,997.942
2018-09-24T09:26:50.445Z,997.950
2018-09-24T09:28:50.455Z,997.928
2018-09-24T09:30:50.415Z,997.923
2018-09-24T09:32:50.444Z,997.945
2018-09-24T09:34:49.863Z,997.950
2018-09-24T09:36:50.011Z,997.950
2018-09-24T09:38:50.021Z,997.985
2018-09-24T09:40:50.040Z,997.953
2018-09-24T09:42:50.058Z,997.935
2018-09-24T09:44:50.071Z,997.939
2018-09-24T09:46:50.431Z,997.933
2018-09-24T09:48:49.724Z,997.961
2018-09-24T09:50:49.771Z,997.964
2018-09-24T09:52:49.842Z,997.981
2018-09-24T09:54:49.865Z,998.018
2018-09-24T09:56:49.957Z,997.976
2018-09-24T09:58:49.969Z,997.955
2018-09-24T10:00:50.188Z,997.942
2018-09-24T10:02:50.196Z,997.952
2018-09-24T10:04:50.797Z,997.910
2018-09-24T10:06:50.232Z,997.927
2018-09-24T10:08:50.282Z,997.936
2018-09-24T10:10:50.293Z,997.914
2018-09-24T10:12:50.311Z,997.946
2018-09-24T10:14:50.292Z,997.938
2018-09-24T10:16:50.430Z,997.932
2018-09-24T10:18:50.433Z,997.938
2018-09-24T10:20:50.411Z,997.961
2018-09-24T10:22:50.316Z,998.016
2018-09-24T10:24:50.313Z,998.030
2018-09-24T10:26:50.431Z,998.047
2018-09-24T10:28:50.370Z,998.049
2018-09-24T10:30:50.330Z,998.031
2018-09-24T10:32:50.281Z,998.003
2018-09-24T10:34:50.555Z,997.992
2018-09-24T10:36:49.875Z,998.034
2018-09-24T10:38:49.788Z,998.073
2018-09-24T10:40:49.886Z,998.104
2018-09-24T10:42:49.981Z,998.103
2018-09-24T10:44:49.907Z,998.005
2018-09-24T10:46:49.925Z,998.027
2018-09-24T10:48:49.863Z,998.029
2018-09-24T10:50:49.780Z,998.040
2018-09-24T10:52:49.916Z,998.097
2018-09-24T10:54:49.915Z,998.092
2018-09-24T10:56:50.026Z,998.085
2018-09-24T10:58:49.936Z,998.091
2018-09-24T11:00:49.942Z,998.132
2018-09-24T11:02:50.048Z,998.201
2018-09-24T11:04:50.743Z,998.210
2018-09-24T11:06:50.101Z,998.256
2018-09-24T11:08:50.024Z,998.312
2018-09-24T11:10:50.177Z,998.319
2018-09-24T11:12:50.183Z,998.287
2018-09-24T11:14:50.194Z,998.313
2018-09-24T11:16:51.224Z,998.350
2018-09-24T11:18:50.176Z,998.294
2018-09-24T11:20:50.125Z,998.257
2018-09-24T11:22:50.100Z,998.252
2018-09-24T11:24:50.102Z,998.232
2018-09-24T11:26:50.279Z,998.246
2018-09-24T11:28:50.299Z,998.258
2018-09-24T11:30:50.230Z,998.267
2018-09-24T11:32:50.221Z,998.281
2018-09-24T11:34:49.635Z,998.244
2018-09-24T11:36:49.695Z,998.222
2018-09-24T11:38:49.699Z,998.170
2018-09-24T11:40:49.735Z,998.146
2018-09-24T11:42:49.622Z,998.158
2018-09-24T11:44:49.631Z,998.135
2018-09-24T11:46:50.180Z,998.143
2018-09-24T11:48:49.667Z,998.151
2018-09-24T11:50:49.619Z,998.151
2018-09-24T11:52:50.586Z,998.122
2018-09-24T11:54:50.482Z,998.149
2018-09-24T11:56:49.655Z,998.084
2018-09-24T11:58:49.650Z,998.052
2018-09-24T12:00:49.622Z,998.007
2018-09-24T12:02:50.661Z,998.001
2018-09-24T12:04:50.123Z,997.966
2018-09-24T12:06:50.261Z,997.957
2018-09-24T12:08:50.190Z,997.973
2018-09-24T12:10:50.192Z,997.961
2018-09-24T12:12:50.180Z,997.904
2018-09-24T12:14:50.107Z,997.885
2018-09-24T12:16:50.223Z,997.901
2018-09-24T12:18:50.135Z,997.875
2018-09-24T12:20:50.121Z,997.856
2018-09-24T12:22:50.341Z,997.832
2018-09-24T12:24:50.324Z,997.828
2018-09-24T12:26:50.477Z,997.812
2018-09-24T12:28:50.479Z,997.780
2018-09-24T12:30:50.459Z,997.740
2018-09-24T12:32:50.513Z,997.710
2018-09-24T12:34:49.736Z,997.747
2018-09-24T12:36:49.761Z,997.765
2018-09-24T12:38:49.871Z,997.693
2018-09-24T12:40:49.886Z,997.725
2018-09-24T12:42:49.864Z,997.728
2018-09-24T12:44:49.863Z,997.678
2018-09-24T12:46:49.980Z,997.699
2018-09-24T12:48:49.981Z,997.735
2018-09-24T12:50:49.972Z,997.687
2018-09-24T12:52:49.955Z,997.694
2018-09-24T12:54:49.921Z,997.660
2018-09-24T12:56:50.076Z,997.622
2018-09-24T12:58:50.035Z,997.620
2018-09-24T13:00:49.993Z,997.633
2018-09-24T13:02:49.939Z,997.638
2018-09-24T13:04:50.218Z,997.647
2018-09-24T13:06:50.334Z,997.623
2018-09-24T13:08:50.352Z,997.655
2018-09-24T13:10:50.303Z,997.665
2018-09-24T13:12:50.311Z,997.694
2018-09-24T13:14:50.332Z,997.692
2018-09-24T13:16:50.515Z,997.719
2018-09-24T13:18:50.482Z,997.647
2018-09-24T13:20:50.600Z,997.629
2018-09-24T13:22:50.485Z,997.642
2018-09-24T13:24:50.404Z,997.703
2018-09-24T13:26:49.756Z,997.690
2018-09-24T13:28:49.809Z,997.696
2018-09-24T13:30:49.805Z,997.687
2018-09-24T13:32:50.152Z,997.674
2018-09-24T13:34:49.634Z,997.686
2018-09-24T13:36:49.993Z,997.703
2018-09-24T13:38:49.925Z,997.693
2018-09-24T13:40:49.948Z,997.702
2018-09-24T13:42:49.888Z,997.688
2018-09-24T13:44:49.863Z,997.691
2018-09-24T13:46:49.921Z,997.690
2018-09-24T13:48:49.920Z,997.696
2018-09-24T13:50:49.857Z,997.694
2018-09-24T13:52:50.015Z,997.670
2018-09-24T13:54:49.975Z,997.595
2018-09-24T13:56:50.164Z,997.648
2018-09-24T13:58:50.108Z,997.651
2018-09-24T14:00:50.039Z,997.669
2018-09-24T14:02:50.004Z,997.626
2018-09-24T14:04:50.211Z,997.608
2018-09-24T14:06:50.375Z,997.649
2018-09-24T14:08:50.449Z,997.622
2018-09-24T14:10:50.495Z,997.628
2018-09-24T14:12:50.488Z,997.616
2018-09-24T14:14:50.487Z,997.547
2018-09-24T14:16:49.607Z,997.501
2018-09-24T14:18:50.567Z,997.495
2018-09-24T14:20:49.808Z,997.479
2018-09-24T14:22:49.745Z,997.469
2018-09-24T14:24:49.719Z,997.479
2018-09-24T14:26:49.916Z,997.503
2018-09-24T14:28:49.858Z,997.499
2018-09-24T14:30:49.782Z,997.508
2018-09-24T14:32:49.824Z,997.519
2018-09-24T14:34:50.103Z,997.543
2018-09-24T14:36:50.309Z,997.532
2018-09-24T14:38:50.263Z,997.525
2018-09-24T14:40:50.220Z,997.520
2018-09-24T14:42:50.254Z,997.531
2018-09-24T14:44:50.175Z,997.531
2018-09-24T14:46:50.316Z,997.506
2018-09-24T14:48:50.250Z,997.504
2018-09-24T14:50:50.201Z,997.496
2018-09-24T14:52:50.170Z,997.500
2018-09-24T14:54:50.172Z,997.524
2018-09-24T14:56:50.262Z,997.520
2018-09-24T14:58:50.279Z,997.527
2018-09-24T15:00:50.213Z,997.505
2018-09-24T15:02:50.171Z,997.509
2018-09-24T15:04:50.542Z,997.430
2018-09-24T15:06:49.697Z,997.443
2018-09-24T15:08:49.831Z,997.457
2018-09-24T15:10:49.829Z,997.448
2018-09-24T15:12:49.792Z,997.474
2018-09-24T15:14:49.790Z,997.529
2018-09-24T15:16:50.166Z,997.567
2018-09-24T15:18:50.146Z,997.531
2018-09-24T15:20:50.100Z,997.549
2018-09-24T15:22:50.161Z,997.559
2018-09-24T15:24:50.138Z,997.586
2018-09-24T15:26:50.275Z,997.553
2018-09-24T15:28:50.306Z,997.561
2018-09-24T15:30:50.478Z,997.552
2018-09-24T15:32:50.428Z,997.572
2018-09-24T15:34:49.721Z,997.550
2018-09-24T15:36:50.238Z,997.547
2018-09-24T15:38:50.107Z,997.590
2018-09-24T15:40:50.267Z,997.592
2018-09-24T15:42:50.342Z,997.590
2018-09-24T15:44:50.402Z,997.598
2018-09-24T15:46:49.636Z,997.592
2018-09-24T15:48:50.613Z,997.594
2018-09-24T15:50:50.585Z,997.591
2018-09-24T15:52:50.565Z,997.610
2018-09-24T15:54:50.479Z,997.593
2018-09-24T15:56:49.858Z,997.593
2018-09-24T15:58:49.865Z,997.613
2018-09-24T16:00:49.826Z,997.613
2018-09-24T16:02:50.088Z,997.620
2018-09-24T16:04:50.457Z,997.654
2018-09-24T16:06:49.643Z,997.671
2018-09-24T16:08:49.669Z,997.671
2018-09-24T16:10:49.644Z,997.704
2018-09-24T16:12:49.637Z,997.749
2018-09-24T16:14:49.652Z,997.751
2018-09-24T16:16:49.693Z,997.763
2018-09-24T16:18:49.809Z,997.769
2018-09-24T16:20:49.861Z,997.747
2018-09-24T16:22:49.907Z,997.750
2018-09-24T16:24:50.032Z,997.772
2018-09-24T16:26:50.235Z,997.794
2018-09-24T16:28:50.162Z,997.826
2018-09-24T16:30:50.164Z,997.833
2018-09-24T16:32:50.131Z,997.839
2018-09-24T16:34:50.498Z,997.864
2018-09-24T16:36:49.680Z,997.873
2018-09-24T16:38:49.663Z,997.907
2018-09-24T16:40:49.788Z,997.900
2018-09-24T16:42:49.766Z,997.915
2018-09-24T16:44:49.778Z,997.928
2018-09-24T16:46:49.972Z,997.946
2018-09-24T16:48:49.989Z,997.946
2018-09-24T16:50:49.957Z,997.973
2018-09-24T16:52:49.910Z,997.977
2018-09-24T16:54:49.893Z,997.997
2018-09-24T16:56:50.091Z,998.009
2018-09-24T16:58:50.064Z,998.038
2018-09-24T17:00:50.111Z,998.081
2018-09-24T17:02:50.108Z,998.097
2018-09-24T17:04:50.357Z,998.134
2018-09-24T17:06:50.597Z,998.176
2018-09-24T17:08:50.622Z,998.195
2018-09-24T17:10:49.613Z,998.205
2018-09-24T17:12:49.809Z,998.226
2018-09-24T17:14:49.943Z,998.242
2018-09-24T17:16:50.192Z,998.248
2018-09-24T17:18:50.198Z,998.264
2018-09-24T17:20:50.258Z,998.292
2018-09-24T17:22:50.202Z,998.328
2018-09-24T17:24:50.216Z,998.335
2018-09-24T17:26:50.350Z,998.358
2018-09-24T17:28:50.270Z,998.386
2018-09-24T17:30:50.258Z,998.375
2018-09-24T17:32:50.586Z,998.396
2018-09-24T17:34:49.894Z,998.411
2018-09-24T17:36:50.095Z,998.447
2018-09-24T17:38:50.055Z,998.500
2018-09-24T17:40:50.040Z,998.537
2018-09-24T17:42:50.030Z,998.560
2018-09-24T17:44:49.966Z,998.590
2018-09-24T17:46:50.196Z,998.604
2018-09-24T17:48:50.114Z,998.632
2018-09-24T17:50:50.097Z,998.668
2018-09-24T17:52:50.243Z,998.702
2018-09-24T17:54:50.530Z,998.748
2018-09-24T17:56:49.835Z,998.764
2018-09-24T17:58:49.846Z,998.800
2018-09-24T18:00:49.800Z,998.827
2018-09-24T18:02:49.854Z,998.833
2018-09-24T18:04:50.112Z,998.850
2018-09-24T18:06:50.236Z,998.874
2018-09-24T18:08:50.255Z,998.904
2018-09-24T18:10:50.169Z,998.906
2018-09-24T18:12:50.161Z,998.932
2018-09-24T18:14:50.102Z,998.952
2018-09-24T18:16:50.196Z,998.978
2018-09-24T18:18:50.212Z,998.978
2018-09-24T18:20:50.207Z,999.011
2018-09-24T18:22:50.197Z,999.012
2018-09-24T18:24:50.191Z,999.011
2018-09-24T18:26:50.444Z,999.008
2018-09-24T18:28:50.505Z,999.016
2018-09-24T18:30:50.467Z,999.039
2018-09-24T18:32:50.409Z,999.062
2018-09-24T18:34:49.764Z,999.113
2018-09-24T18:36:49.933Z,999.128
2018-09-24T18:38:49.906Z,999.164
2018-09-24T18:40:49.950Z,999.149
2018-09-24T18:42:49.918Z,999.188
2018-09-24T18:44:49.830Z,999.217
2018-09-24T18:46:49.916Z,999.218
2018-09-24T18:48:50.058Z,999.239
2018-09-24T18:50:50.067Z,999.245
2018-09-24T18:52:50.025Z,999.298
2018-09-24T18:54:49.974Z,999.334
2018-09-24T18:56:50.146Z,999.347
2018-09-24T18:58:50.125Z,999.362
2018-09-24T19:00:50.278Z,999.376
2018-09-24T19:02:50.440Z,999.375
2018-09-24T19:04:49.751Z,999.382
2018-09-24T19:06:49.898Z,999.376
2018-09-24T19:08:49.896Z,999.389
2018-09-24T19:10:50.124Z,999.400
2018-09-24T19:12:50.178Z,999.432
2018-09-24T19:14:50.162Z,999.426
2018-09-24T19:16:50.413Z,999.436
2018-09-24T19:18:50.359Z,999.438
2018-09-24T19:20:50.417Z,999.470
2018-09-24T19:22:50.413Z,999.518
2018-09-24T19:24:50.391Z,999.553
2018-09-24T19:26:49.741Z,999.603
2018-09-24T19:28:49.746Z,999.631
2018-09-24T19:30:49.778Z,999.640
2018-09-24T19:32:49.892Z,999.696
2018-09-24T19:34:50.169Z,999.735
2018-09-24T19:36:50.531Z,999.781
2018-09-24T19:38:49.864Z,999.799
2018-09-24T19:40:49.885Z,999.818
2018-09-24T19:42:49.888Z,999.841
2018-09-24T19:44:49.869Z,999.852
2018-09-24T19:46:49.962Z,999.882
2018-09-24T19:48:49.928Z,999.882
2018-09-24T19:50:49.927Z,999.972
2018-09-24T19:52:49.898Z,1000.001
2018-09-24T19:54:49.971Z,1000.011
2018-09-24T19:56:50.252Z,1000.038
2018-09-24T19:58:50.295Z,1000.041
2018-09-24T20:00:50.289Z,1000.045
2018-09-24T20:02:50.233Z,1000.068
2018-09-24T20:04:49.733Z,1000.096
2018-09-24T20:06:49.819Z,1000.123
2018-09-24T20:08:49.835Z,1000.142
2018-09-24T20:10:49.843Z,1000.146
2018-09-24T20:12:49.890Z,1000.147
2018-09-24T20:14:49.865Z,1000.152
2018-09-24T20:16:50.558Z,1000.186
2018-09-24T20:18:49.622Z,1000.202
2018-09-24T20:20:49.657Z,1000.223
2018-09-24T20:22:49.778Z,1000.245
2018-09-24T20:24:49.792Z,1000.243
2018-09-24T20:26:50.074Z,1000.238
2018-09-24T20:28:50.036Z,1000.251
2018-09-24T20:30:50.065Z,1000.245
2018-09-24T20:32:49.984Z,1000.263
2018-09-24T20:34:50.202Z,1000.324
2018-09-24T20:36:50.403Z,1000.361
2018-09-24T20:38:50.444Z,1000.401
2018-09-24T20:40:50.389Z,1000.421
2018-09-24T20:42:50.433Z,1000.450
2018-09-24T20:44:50.585Z,1000.464
2018-09-24T20:46:49.682Z,1000.467
2018-09-24T20:48:49.930Z,1000.456
2018-09-24T20:50:49.629Z,1000.492
2018-09-24T20:52:49.791Z,1000.533
2018-09-24T20:54:50.034Z,1000.533
2018-09-24T20:56:50.175Z,1000.557
2018-09-24T20:58:50.211Z,1000.577
2018-09-24T21:00:50.191Z,1000.625
2018-09-24T21:02:50.218Z,1000.650
2018-09-24T21:04:50.438Z,1000.652
2018-09-24T21:06:50.559Z,1000.681
2018-09-24T21:08:50.537Z,1000.669
2018-09-24T21:10:50.544Z,1000.660
2018-09-24T21:12:50.545Z,1000.657
2018-09-24T21:14:50.471Z,1000.641
2018-09-24T21:16:49.629Z,1000.647
2018-09-24T21:18:49.675Z,1000.657
2018-09-24T21:20:49.660Z,1000.653
2018-09-24T21:22:49.781Z,1000.692
2018-09-24T21:24:49.750Z,1000.757
2018-09-24T21:26:49.974Z,1000.790
2018-09-24T21:28:49.992Z,1000.839
2018-09-24T21:30:49.927Z,1000.863
2018-09-24T21:32:50.127Z,1000.901
2018-09-24T21:34:50.348Z,1000.919
2018-09-24T21:36:50.496Z,1000.954
2018-09-24T21:38:50.498Z,1000.961
2018-09-24T21:40:50.504Z,1000.962
2018-09-24T21:42:50.579Z,1000.977
2018-09-24T21:44:49.912Z,1001.011
2018-09-24T21:46:50.731Z,1001.065
2018-09-24T21:48:50.143Z,1001.080
2018-09-24T21:50:50.095Z,1001.150
2018-09-24T21:52:50.101Z,1001.215
2018-09-24T21:54:50.042Z,1001.250
2018-09-24T21:56:50.227Z,1001.297
2018-09-24T21:58:50.184Z,1001.327
2018-09-24T22:00:50.173Z,1001.325
2018-09-24T22:02:50.209Z,1001.335
2018-09-24T22:04:49.804Z,1001.347
2018-09-24T22:06:50.092Z,1001.361
2018-09-24T22:08:50.178Z,1001.380
2018-09-24T22:10:50.191Z,1001.387
2018-09-24T22:12:50.178Z,1001.423
2018-09-24T22:14:50.181Z,1001.441
2018-09-24T22:16:50.301Z,1001.481
2018-09-24T22:18:50.280Z,1001.527
2018-09-24T22:20:50.236Z,1001.544
2018-09-24T22:22:50.275Z,1001.561
2018-09-24T22:24:50.226Z,1001.567
2018-09-24T22:26:50.352Z,1001.566
2018-09-24T22:28:50.256Z,1001.571
2018-09-24T22:30:50.331Z,1001.571
2018-09-24T22:32:50.300Z,1001.564
2018-09-24T22:34:49.749Z,1001.547
2018-09-24T22:36:50.126Z,1001.552
2018-09-24T22:38:50.099Z,1001.562
2018-09-24T22:40:50.064Z,1001.566
2018-09-24T22:42:50.055Z,1001.570
2018-09-24T22:44:50.070Z,1001.603
2018-09-24T22:46:50.145Z,1001.625
2018-09-24T22:48:50.095Z,1001.629
2018-09-24T22:50:50.147Z,1001.612
2018-09-24T22:52:50.135Z,1001.619
2018-09-24T22:54:50.056Z,1001.648
2018-09-24T22:56:50.305Z,1001.681
2018-09-24T22:58:50.219Z,1001.682
2018-09-24T23:00:50.224Z,1001.694
2018-09-24T23:02:50.186Z,1001.702
2018-09-24T23:04:50.339Z,1001.723
2018-09-24T23:06:50.523Z,1001.753
2018-09-24T23:08:50.565Z,1001.771
2018-09-24T23:10:50.454Z,1001.784
2018-09-24T23:12:50.611Z,1001.801
2018-09-24T23:14:49.645Z,1001.817
2018-09-24T23:16:49.864Z,1001.828
2018-09-24T23:18:49.849Z,1001.835
2018-09-24T23:20:49.854Z,1001.793
2018-09-24T23:22:49.866Z,1001.779
2018-09-24T23:24:49.866Z,1001.767
2018-09-24T23:26:50.036Z,1001.755
2018-09-24T23:28:50.012Z,1001.758
2018-09-24T23:30:49.995Z,1001.765
2018-09-24T23:32:50.049Z,1001.843
2018-09-24T23:34:50.484Z,1001.880
2018-09-24T23:36:49.754Z,1001.878
2018-09-24T23:38:49.839Z,1001.884
2018-09-24T23:40:49.777Z,1001.902
2018-09-24T23:42:49.906Z,1001.947
2018-09-24T23:44:49.883Z,1001.958
2018-09-24T23:46:50.014Z,1001.975
2018-09-24T23:48:50.007Z,1002.023
2018-09-24T23:50:49.970Z,1002.029
2018-09-24T23:52:49.952Z,1002.061
2018-09-24T23:54:49.989Z,1002.093
2018-09-24T23:56:50.309Z,1002.116
2018-09-24T23:58:50.347Z,1002.156
